JST519 YSSY-YMML
Flight info
| Callsign | JST519 |
|---|---|
| Flight time | 1h 23m |
| Altitude | 32000 |
| Route | MARUB7/34R WOL H65 LEECE Q29 ML |
| Aircraft | A320/M-SDE3FGHIRWY/LB1 |
Departure
| Time | 2026-05-04 05:16 |
|---|---|
| Airport | Sydney Kingsford Smith International Airport (YSSY) |
Arrival
| Time | 2026-05-04 06:40 |
|---|---|
| Airport | Melbourne Airport (YMML) |
| Time | Latitude | Longitude | Altitude | Speed | Heading |
|---|---|---|---|---|---|
| 2026-05-04 04:43 | -33.93558 | 151.17673 | 30 ft | 0 kts | 98° |
| 2026-05-04 04:43 | -33.93562 | 151.17773 | 31 ft | 0 kts | 280° |
| 2026-05-04 04:45 | -33.93512 | 151.17673 | 29 ft | 0 kts | 97° |
| 2026-05-04 05:01 | -33.93510 | 151.17652 | 30 ft | 3 kts | 94° |
| 2026-05-04 05:01 | -33.93508 | 151.17621 | 30 ft | 3 kts | 101° |
| 2026-05-04 05:01 | -33.93497 | 151.17594 | 28 ft | 3 kts | 143° |
| 2026-05-04 05:01 | -33.93480 | 151.17584 | 28 ft | 0 kts | 169° |
| 2026-05-04 05:06 | -33.93640 | 151.17628 | 28 ft | 4 kts | 162° |
| 2026-05-04 05:06 | -33.93671 | 151.17649 | 28 ft | 11 kts | 144° |
| 2026-05-04 05:06 | -33.93779 | 151.17695 | 20 ft | 19 kts | 168° |
| 2026-05-04 05:07 | -33.93885 | 151.17772 | 21 ft | 18 kts | 149° |
| 2026-05-04 05:07 | -33.94006 | 151.17806 | 23 ft | 18 kts | 169° |
| 2026-05-04 05:07 | -33.94134 | 151.17839 | 24 ft | 19 kts | 167° |
| 2026-05-04 05:09 | -33.95080 | 151.18225 | 24 ft | 18 kts | 78° |
| 2026-05-04 05:09 | -33.95064 | 151.18318 | 25 ft | 11 kts | 78° |
| 2026-05-04 05:10 | -33.95048 | 151.18409 | 31 ft | 7 kts | 78° |
| 2026-05-04 05:10 | -33.95046 | 151.18419 | 30 ft | 4 kts | 79° |
| 2026-05-04 05:10 | -33.95046 | 151.18474 | 27 ft | 8 kts | 107° |
| 2026-05-04 05:10 | -33.95061 | 151.18500 | 27 ft | 2 kts | 130° |
| 2026-05-04 05:11 | -33.95102 | 151.18530 | 27 ft | 11 kts | 152° |
| 2026-05-04 05:11 | -33.95165 | 151.18593 | 30 ft | 13 kts | 136° |
| 2026-05-04 05:11 | -33.95238 | 151.18672 | 29 ft | 16 kts | 144° |
| 2026-05-04 05:11 | -33.95383 | 151.18739 | 24 ft | 26 kts | 167° |
| 2026-05-04 05:12 | -33.95547 | 151.18781 | 23 ft | 25 kts | 168° |
| 2026-05-04 05:12 | -33.95709 | 151.18825 | 29 ft | 24 kts | 167° |
| 2026-05-04 05:12 | -33.95875 | 151.18866 | 27 ft | 25 kts | 169° |
| 2026-05-04 05:12 | -33.96038 | 151.18906 | 26 ft | 25 kts | 168° |
| 2026-05-04 05:13 | -33.96203 | 151.18950 | 28 ft | 25 kts | 167° |
| 2026-05-04 05:13 | -33.96375 | 151.18997 | 26 ft | 27 kts | 168° |
| 2026-05-04 05:13 | -33.96552 | 151.19042 | 19 ft | 23 kts | 168° |
| 2026-05-04 05:13 | -33.96705 | 151.19078 | 19 ft | 22 kts | 179° |
| 2026-05-04 05:14 | -33.96863 | 151.19078 | 19 ft | 24 kts | 167° |
| 2026-05-04 05:14 | -33.97024 | 151.19120 | 20 ft | 22 kts | 168° |
| 2026-05-04 05:14 | -33.97130 | 151.19178 | 21 ft | 12 kts | 117° |
| 2026-05-04 05:14 | -33.97122 | 151.19268 | 21 ft | 0 kts | 76° |
| 2026-05-04 05:15 | -33.97121 | 151.19274 | 22 ft | 5 kts | 76° |
| 2026-05-04 05:15 | -33.97102 | 151.19365 | 22 ft | 12 kts | 70° |
| 2026-05-04 05:15 | -33.97025 | 151.19367 | 20 ft | 14 kts | 347° |
| 2026-05-04 05:15 | -33.96859 | 151.19324 | 19 ft | 51 kts | 348° |
| 2026-05-04 05:16 | -33.96301 | 151.19179 | 26 ft | 109 kts | 348° |
| 2026-05-04 05:16 | -33.95416 | 151.18956 | 63 ft | 148 kts | 347° |
| 2026-05-04 05:16 | -33.94416 | 151.18702 | 693 ft | 146 kts | 352° |
| 2026-05-04 05:16 | -33.93402 | 151.18792 | 1225 ft | 153 kts | 22° |
| 2026-05-04 05:17 | -33.92714 | 151.19817 | 1778 ft | 172 kts | 62° |
| 2026-05-04 05:17 | -33.92593 | 151.21376 | 2102 ft | 207 kts | 97° |
| 2026-05-04 05:17 | -33.92908 | 151.22470 | 2555 ft | 210 kts | 110° |
| 2026-05-04 05:17 | -33.93569 | 151.24060 | 3107 ft | 216 kts | 110° |
| 2026-05-04 05:18 | -33.93851 | 151.25824 | 3602 ft | 217 kts | 82° |
| 2026-05-04 05:18 | -33.93797 | 151.27657 | 4227 ft | 225 kts | 82° |
| 2026-05-04 05:18 | -33.93727 | 151.29636 | 4635 ft | 248 kts | 82° |
| 2026-05-04 05:18 | -33.93638 | 151.31824 | 4901 ft | 276 kts | 82° |
| 2026-05-04 05:19 | -33.93551 | 151.34195 | 4982 ft | 286 kts | 83° |
| 2026-05-04 05:19 | -33.93482 | 151.36578 | 5014 ft | 286 kts | 83° |
| 2026-05-04 05:19 | -33.93429 | 151.38962 | 4902 ft | 284 kts | 84° |
| 2026-05-04 05:19 | -33.93388 | 151.41345 | 4957 ft | 289 kts | 84° |
| 2026-05-04 05:20 | -33.93330 | 151.43759 | 5869 ft | 287 kts | 83° |
| 2026-05-04 05:20 | -33.93259 | 151.46147 | 6809 ft | 284 kts | 83° |
| 2026-05-04 05:20 | -33.93178 | 151.48566 | 7459 ft | 295 kts | 85° |
| 2026-05-04 05:20 | -33.93449 | 151.51044 | 8191 ft | 304 kts | 103° |
| 2026-05-04 05:21 | -33.94316 | 151.53404 | 8918 ft | 313 kts | 121° |
| 2026-05-04 05:21 | -33.95725 | 151.55418 | 9662 ft | 317 kts | 140° |
| 2026-05-04 05:21 | -33.97569 | 151.56912 | 10197 ft | 327 kts | 156° |
| 2026-05-04 05:21 | -33.99798 | 151.57719 | 10373 ft | 345 kts | 177° |
| 2026-05-04 05:22 | -34.02208 | 151.57581 | 10734 ft | 350 kts | 197° |
| 2026-05-04 05:22 | -34.04459 | 151.56532 | 11314 ft | 347 kts | 216° |
| 2026-05-04 05:22 | -34.06316 | 151.54716 | 11920 ft | 341 kts | 234° |
| 2026-05-04 05:22 | -34.07810 | 151.52497 | 12573 ft | 342 kts | 236° |
| 2026-05-04 05:23 | -34.09298 | 151.50239 | 13227 ft | 345 kts | 237° |
| 2026-05-04 05:23 | -34.10797 | 151.47956 | 13848 ft | 349 kts | 237° |
| 2026-05-04 05:23 | -34.12309 | 151.45659 | 14397 ft | 352 kts | 236° |
| 2026-05-04 05:23 | -34.13841 | 151.43335 | 14944 ft | 355 kts | 237° |
| 2026-05-04 05:24 | -34.15385 | 151.40992 | 15492 ft | 358 kts | 237° |
| 2026-05-04 05:24 | -34.16936 | 151.38640 | 16039 ft | 361 kts | 237° |
| 2026-05-04 05:24 | -34.18509 | 151.36251 | 16592 ft | 364 kts | 237° |
| 2026-05-04 05:24 | -34.20090 | 151.33845 | 17132 ft | 368 kts | 237° |
| 2026-05-04 05:25 | -34.21686 | 151.31415 | 17691 ft | 371 kts | 237° |
| 2026-05-04 05:25 | -34.23296 | 151.28966 | 18232 ft | 374 kts | 237° |
| 2026-05-04 05:25 | -34.24917 | 151.26497 | 18711 ft | 376 kts | 237° |
| 2026-05-04 05:25 | -34.26545 | 151.24016 | 19225 ft | 378 kts | 237° |
| 2026-05-04 05:26 | -34.28187 | 151.21518 | 19756 ft | 380 kts | 237° |
| 2026-05-04 05:26 | -34.29826 | 151.19015 | 20291 ft | 381 kts | 237° |
| 2026-05-04 05:26 | -34.31473 | 151.16498 | 20809 ft | 382 kts | 238° |
| 2026-05-04 05:26 | -34.33123 | 151.13970 | 21312 ft | 383 kts | 238° |
| 2026-05-04 05:27 | -34.34775 | 151.11436 | 21786 ft | 385 kts | 238° |
| 2026-05-04 05:28 | -34.46595 | 150.93286 | 24748 ft | 399 kts | 238° |
| 2026-05-04 05:29 | -34.48311 | 150.90647 | 25105 ft | 401 kts | 238° |
| 2026-05-04 05:29 | -34.50045 | 150.87982 | 25485 ft | 403 kts | 238° |
| 2026-05-04 05:29 | -34.51785 | 150.85305 | 25791 ft | 406 kts | 238° |
| 2026-05-04 05:29 | -34.53536 | 150.82604 | 26125 ft | 409 kts | 238° |
| 2026-05-04 05:31 | -34.65579 | 150.62871 | 28479 ft | 423 kts | 240° |
| 2026-05-04 05:31 | -34.67313 | 150.59972 | 28829 ft | 426 kts | 240° |
| 2026-05-04 05:32 | -34.69066 | 150.57055 | 29152 ft | 428 kts | 240° |
| 2026-05-04 05:32 | -34.70825 | 150.54133 | 29493 ft | 430 kts | 240° |
| 2026-05-04 05:32 | -34.72596 | 150.51188 | 29841 ft | 433 kts | 240° |
| 2026-05-04 05:33 | -34.76155 | 150.45257 | 30496 ft | 434 kts | 240° |
| 2026-05-04 05:33 | -34.77933 | 150.42292 | 30867 ft | 433 kts | 240° |
| 2026-05-04 05:33 | -34.79706 | 150.39335 | 31273 ft | 431 kts | 240° |
| 2026-05-04 05:33 | -34.81464 | 150.36400 | 31712 ft | 428 kts | 241° |
| 2026-05-04 05:34 | -34.83215 | 150.33472 | 31937 ft | 428 kts | 241° |
| 2026-05-04 05:34 | -34.86660 | 150.27703 | 31993 ft | 416 kts | 241° |
| 2026-05-04 05:35 | -34.90041 | 150.22015 | 31987 ft | 415 kts | 241° |
| 2026-05-04 05:35 | -34.93416 | 150.16315 | 32005 ft | 414 kts | 242° |
| 2026-05-04 05:36 | -34.96784 | 150.10637 | 32007 ft | 413 kts | 242° |
| 2026-05-04 05:36 | -35.00129 | 150.04980 | 31991 ft | 415 kts | 242° |
| 2026-05-04 05:37 | -35.03534 | 149.99225 | 31994 ft | 415 kts | 242° |
| 2026-05-04 05:37 | -35.06913 | 149.93513 | 31996 ft | 415 kts | 242° |
| 2026-05-04 05:38 | -35.11980 | 149.84921 | 32022 ft | 415 kts | 242° |
| 2026-05-04 05:38 | -35.15350 | 149.79185 | 32018 ft | 416 kts | 243° |
| 2026-05-04 05:39 | -35.20407 | 149.70558 | 32011 ft | 417 kts | 242° |
| 2026-05-04 05:40 | -35.25470 | 149.61919 | 32005 ft | 417 kts | 243° |
| 2026-05-04 05:40 | -35.28845 | 149.56150 | 32039 ft | 417 kts | 243° |
| 2026-05-04 05:41 | -35.32213 | 149.50375 | 32035 ft | 417 kts | 243° |
| 2026-05-04 05:41 | -35.35581 | 149.44591 | 32043 ft | 417 kts | 243° |
| 2026-05-04 05:42 | -35.38942 | 149.38814 | 32049 ft | 417 kts | 243° |
| 2026-05-04 05:42 | -35.42305 | 149.33023 | 32054 ft | 417 kts | 243° |
| 2026-05-04 05:43 | -35.45664 | 149.27223 | 32039 ft | 417 kts | 243° |
| 2026-05-04 05:45 | -35.59099 | 149.03934 | 32017 ft | 419 kts | 243° |
| 2026-05-04 05:47 | -35.72460 | 148.80611 | 32021 ft | 417 kts | 244° |
| 2026-05-04 05:47 | -35.75797 | 148.74758 | 32026 ft | 418 kts | 244° |
| 2026-05-04 05:48 | -35.79114 | 148.68947 | 32024 ft | 417 kts | 244° |
| 2026-05-04 05:48 | -35.82446 | 148.63098 | 32015 ft | 416 kts | 244° |
| 2026-05-04 05:49 | -35.85762 | 148.57258 | 32041 ft | 416 kts | 245° |
| 2026-05-04 05:49 | -35.89075 | 148.51396 | 32005 ft | 417 kts | 245° |
| 2026-05-04 05:51 | -36.02273 | 148.27922 | 32016 ft | 416 kts | 245° |
| 2026-05-04 05:52 | -36.05555 | 148.22062 | 32010 ft | 417 kts | 245° |
| 2026-05-04 05:52 | -36.08853 | 148.16168 | 32032 ft | 415 kts | 246° |
| 2026-05-04 05:54 | -36.22284 | 147.92095 | 32048 ft | 441 kts | 245° |
| 2026-05-04 05:55 | -36.25767 | 147.85867 | 32014 ft | 439 kts | 245° |
| 2026-05-04 05:55 | -36.29230 | 147.79634 | 32014 ft | 441 kts | 246° |
| 2026-05-04 05:56 | -36.32706 | 147.73350 | 32019 ft | 442 kts | 246° |
| 2026-05-04 05:56 | -36.36182 | 147.67062 | 32018 ft | 441 kts | 245° |
| 2026-05-04 05:57 | -36.39646 | 147.60778 | 32037 ft | 441 kts | 246° |
| 2026-05-04 05:57 | -36.43109 | 147.54488 | 32032 ft | 441 kts | 246° |
| 2026-05-04 05:58 | -36.46568 | 147.48183 | 32011 ft | 442 kts | 246° |
| 2026-05-04 05:58 | -36.49449 | 147.42922 | 31999 ft | 442 kts | 246° |
| 2026-05-04 05:59 | -36.52907 | 147.36599 | 32015 ft | 442 kts | 246° |
| 2026-05-04 05:59 | -36.56363 | 147.30278 | 32022 ft | 443 kts | 246° |
| 2026-05-04 06:00 | -36.59824 | 147.23954 | 32004 ft | 442 kts | 245° |
| 2026-05-04 06:00 | -36.63277 | 147.17603 | 31998 ft | 443 kts | 246° |
| 2026-05-04 06:01 | -36.66726 | 147.11243 | 31997 ft | 443 kts | 246° |
| 2026-05-04 06:03 | -36.80491 | 146.85780 | 32004 ft | 442 kts | 245° |
| 2026-05-04 06:05 | -36.95908 | 146.57043 | 31996 ft | 443 kts | 245° |
| 2026-05-04 06:06 | -36.99313 | 146.50667 | 31983 ft | 443 kts | 245° |
| 2026-05-04 06:06 | -37.02732 | 146.44244 | 31979 ft | 444 kts | 245° |
| 2026-05-04 06:07 | -37.06148 | 146.37812 | 31344 ft | 438 kts | 245° |
| 2026-05-04 06:07 | -37.07805 | 146.34704 | 30828 ft | 423 kts | 245° |
| 2026-05-04 06:07 | -37.09423 | 146.31675 | 30129 ft | 415 kts | 245° |
| 2026-05-04 06:07 | -37.11006 | 146.28702 | 29314 ft | 407 kts | 246° |
| 2026-05-04 06:08 | -37.12562 | 146.25766 | 28446 ft | 400 kts | 246° |
| 2026-05-04 06:08 | -37.14083 | 146.22882 | 27595 ft | 394 kts | 246° |
| 2026-05-04 06:08 | -37.15584 | 146.20025 | 26772 ft | 389 kts | 246° |
| 2026-05-04 06:08 | -37.17065 | 146.17205 | 25964 ft | 385 kts | 246° |
| 2026-05-04 06:09 | -37.18529 | 146.14418 | 25198 ft | 381 kts | 246° |
| 2026-05-04 06:09 | -37.19980 | 146.11655 | 24521 ft | 376 kts | 246° |
| 2026-05-04 06:11 | -37.29028 | 145.94487 | 21614 ft | 308 kts | 247° |
| 2026-05-04 06:11 | -37.30199 | 145.92236 | 21236 ft | 307 kts | 246° |
| 2026-05-04 06:13 | -37.38410 | 145.76548 | 18616 ft | 310 kts | 243° |
| 2026-05-04 06:14 | -37.45479 | 145.63032 | 16298 ft | 304 kts | 242° |
| 2026-05-04 06:14 | -37.46703 | 145.60855 | 15930 ft | 304 kts | 240° |
| 2026-05-04 06:15 | -37.47956 | 145.58709 | 15554 ft | 304 kts | 239° |
| 2026-05-04 06:15 | -37.49220 | 145.56576 | 15186 ft | 304 kts | 239° |
| 2026-05-04 06:15 | -37.50484 | 145.54446 | 14818 ft | 303 kts | 239° |
| 2026-05-04 06:15 | -37.51740 | 145.52314 | 14467 ft | 303 kts | 239° |
| 2026-05-04 06:16 | -37.52988 | 145.50179 | 14080 ft | 303 kts | 239° |
| 2026-05-04 06:16 | -37.54234 | 145.48035 | 13699 ft | 303 kts | 239° |
| 2026-05-04 06:16 | -37.55471 | 145.45900 | 13301 ft | 302 kts | 239° |
| 2026-05-04 06:16 | -37.56712 | 145.43755 | 12915 ft | 301 kts | 239° |
| 2026-05-04 06:17 | -37.57945 | 145.41631 | 12536 ft | 300 kts | 239° |
| 2026-05-04 06:17 | -37.59168 | 145.39524 | 12171 ft | 298 kts | 239° |
| 2026-05-04 06:17 | -37.60393 | 145.37408 | 11802 ft | 297 kts | 239° |
| 2026-05-04 06:17 | -37.61606 | 145.35313 | 11423 ft | 296 kts | 239° |
| 2026-05-04 06:18 | -37.62820 | 145.33215 | 11044 ft | 295 kts | 240° |
| 2026-05-04 06:18 | -37.64026 | 145.31127 | 10684 ft | 294 kts | 240° |
| 2026-05-04 06:18 | -37.65210 | 145.29074 | 10323 ft | 293 kts | 240° |
| 2026-05-04 06:20 | -37.73242 | 145.15103 | 7697 ft | 274 kts | 242° |
| 2026-05-04 06:20 | -37.74338 | 145.13202 | 7469 ft | 259 kts | 242° |
| 2026-05-04 06:21 | -37.78414 | 145.06109 | 5920 ft | 246 kts | 243° |
| 2026-05-04 06:21 | -37.79411 | 145.04365 | 5424 ft | 244 kts | 243° |
| 2026-05-04 06:22 | -37.80407 | 145.02623 | 4951 ft | 243 kts | 243° |
| 2026-05-04 06:22 | -37.81274 | 145.00827 | 4443 ft | 236 kts | 256° |
| 2026-05-04 06:25 | -37.77840 | 144.85657 | 3733 ft | 150 kts | 353° |
| 2026-05-04 06:25 | -37.76743 | 144.85588 | 3167 ft | 163 kts | 350° |
| 2026-05-04 06:26 | -37.75578 | 144.85425 | 2458 ft | 178 kts | 349° |
| 2026-05-04 06:26 | -37.74318 | 144.85222 | 1917 ft | 183 kts | 351° |
| 2026-05-04 06:26 | -37.73048 | 144.84997 | 1340 ft | 181 kts | 350° |
| 2026-05-04 06:26 | -37.71914 | 144.84726 | 1141 ft | 156 kts | 350° |
| 2026-05-04 06:27 | -37.68319 | 144.84046 | 375 ft | 122 kts | 354° |
| 2026-05-04 06:28 | -37.67449 | 144.83892 | 830 ft | 128 kts | 355° |
| 2026-05-04 06:28 | -37.66518 | 144.83747 | 1296 ft | 140 kts | 354° |
| 2026-05-04 06:28 | -37.65562 | 144.84084 | 1826 ft | 158 kts | 26° |
| 2026-05-04 06:28 | -37.64635 | 144.84979 | 2366 ft | 173 kts | 31° |
| 2026-05-04 06:29 | -37.63665 | 144.85967 | 2781 ft | 188 kts | 29° |
| 2026-05-04 06:29 | -37.62633 | 144.87099 | 3241 ft | 210 kts | 36° |
| 2026-05-04 06:29 | -37.61900 | 144.88779 | 3118 ft | 231 kts | 71° |
| 2026-05-04 06:29 | -37.62014 | 144.90839 | 3056 ft | 247 kts | 106° |
| 2026-05-04 06:30 | -37.62995 | 144.92649 | 3039 ft | 255 kts | 136° |
| 2026-05-04 06:30 | -37.64524 | 144.93745 | 3038 ft | 255 kts | 165° |
| 2026-05-04 06:30 | -37.66233 | 144.94292 | 3036 ft | 255 kts | 171° |
| 2026-05-04 06:30 | -37.67960 | 144.94750 | 3035 ft | 256 kts | 172° |
| 2026-05-04 06:31 | -37.69719 | 144.95202 | 3036 ft | 254 kts | 172° |
| 2026-05-04 06:31 | -37.71433 | 144.95643 | 3033 ft | 255 kts | 172° |
| 2026-05-04 06:31 | -37.73175 | 144.96088 | 3033 ft | 256 kts | 172° |
| 2026-05-04 06:31 | -37.74923 | 144.96534 | 3030 ft | 255 kts | 172° |
| 2026-05-04 06:32 | -37.76665 | 144.96978 | 3030 ft | 255 kts | 172° |
| 2026-05-04 06:33 | -37.87948 | 144.96829 | 3013 ft | 217 kts | 246° |
| 2026-05-04 06:34 | -37.88525 | 144.95145 | 3016 ft | 204 kts | 267° |
| 2026-05-04 06:34 | -37.88581 | 144.93397 | 3018 ft | 195 kts | 285° |
| 2026-05-04 06:34 | -37.88173 | 144.91794 | 3010 ft | 189 kts | 303° |
| 2026-05-04 06:34 | -37.87388 | 144.90490 | 3022 ft | 186 kts | 319° |
| 2026-05-04 06:35 | -37.86350 | 144.89514 | 2922 ft | 185 kts | 325° |
| 2026-05-04 06:36 | -37.78223 | 144.85929 | 2036 ft | 147 kts | 349° |
| 2026-05-04 06:37 | -37.77254 | 144.85748 | 2018 ft | 136 kts | 348° |
| 2026-05-04 06:37 | -37.76347 | 144.85576 | 2022 ft | 130 kts | 348° |
| 2026-05-04 06:37 | -37.75460 | 144.85406 | 1865 ft | 126 kts | 349° |
| 2026-05-04 06:37 | -37.74603 | 144.85248 | 1754 ft | 128 kts | 348° |
| 2026-05-04 06:38 | -37.73719 | 144.85110 | 1462 ft | 126 kts | 351° |
| 2026-05-04 06:38 | -37.72855 | 144.84942 | 1303 ft | 128 kts | 349° |
| 2026-05-04 06:40 | -37.67362 | 144.83872 | 370 ft | 10 kts | 351° |
| 2026-05-04 06:40 | -37.67254 | 144.83855 | 375 ft | 19 kts | 354° |
| 2026-05-04 06:40 | -37.67135 | 144.83837 | 379 ft | 16 kts | 354° |
| 2026-05-04 06:40 | -37.67030 | 144.83844 | 381 ft | 15 kts | 10° |
| 2026-05-04 06:41 | -37.66941 | 144.83868 | 383 ft | 13 kts | 15° |
| 2026-05-04 06:41 | -37.66857 | 144.83905 | 383 ft | 13 kts | 20° |
| 2026-05-04 06:41 | -37.66819 | 144.83924 | 383 ft | 0 kts | 25° |
| 2026-05-04 06:41 | -37.66809 | 144.83930 | 383 ft | 3 kts | 25° |
| 2026-05-04 06:42 | -37.66775 | 144.83950 | 383 ft | 7 kts | 25° |
| 2026-05-04 06:42 | -37.66734 | 144.83974 | 383 ft | 8 kts | 28° |
| 2026-05-04 06:42 | -37.66720 | 144.84053 | 380 ft | 12 kts | 90° |
| 2026-05-04 06:44 | -37.67467 | 144.84447 | 361 ft | 17 kts | 85° |
| 2026-05-04 06:44 | -37.67459 | 144.84554 | 357 ft | 20 kts | 84° |
| 2026-05-04 06:44 | -37.67441 | 144.84709 | 355 ft | 10 kts | 83° |
| 2026-05-04 06:45 | -37.67439 | 144.84768 | 356 ft | 8 kts | 115° |
| 2026-05-04 06:45 | -37.67498 | 144.84786 | 354 ft | 10 kts | 172° |
| 2026-05-04 06:45 | -37.67534 | 144.84792 | 353 ft | 0 kts | 172° |